createdAt,value
2022-09-28T00:01:42.236Z,9.59
2022-09-28T00:08:02.170Z,9.53
2022-09-28T00:14:25.178Z,9.49
2022-09-28T00:20:45.238Z,9.47
2022-09-28T00:27:08.146Z,9.44
2022-09-28T00:33:28.247Z,9.45
2022-09-28T00:39:51.182Z,9.44
2022-09-28T00:46:11.201Z,9.46
2022-09-28T00:52:34.190Z,9.46
2022-09-28T00:58:54.199Z,9.48
2022-09-28T01:05:17.197Z,9.49
2022-09-28T01:11:37.189Z,9.47
2022-09-28T01:18:00.238Z,9.41
2022-09-28T01:24:20.142Z,9.31
2022-09-28T01:30:43.238Z,9.26
2022-09-28T01:37:03.143Z,9.2
2022-09-28T01:43:26.185Z,9.16
2022-09-28T01:49:46.165Z,9.2
2022-09-28T01:56:09.176Z,9.18
2022-09-28T02:02:29.235Z,9.1
2022-09-28T02:08:52.205Z,9.05
2022-09-28T02:15:12.214Z,9.09
2022-09-28T02:21:35.150Z,9.16
2022-09-28T02:27:55.250Z,9.22
2022-09-28T02:34:18.183Z,9.28
2022-09-28T02:40:38.264Z,9.26
2022-09-28T02:47:01.189Z,9.19
2022-09-28T02:53:21.214Z,9.16
2022-09-28T02:59:44.197Z,9.13
2022-09-28T03:06:04.199Z,9.1
2022-09-28T03:12:27.172Z,9.1
2022-09-28T03:18:47.173Z,9.14
2022-09-28T03:34:39.029Z,9.21
2022-09-28T03:40:59.250Z,9.21
2022-09-28T03:47:22.142Z,9.19
2022-09-28T03:53:42.240Z,9.15
2022-09-28T04:00:05.148Z,9.15
2022-09-28T04:06:25.178Z,9.09
2022-09-28T04:12:48.196Z,9.07
2022-09-28T04:19:08.147Z,9.04
2022-09-28T04:25:31.213Z,8.99
2022-09-28T04:31:51.259Z,8.92
2022-09-28T04:38:14.195Z,8.89
2022-09-28T04:44:34.154Z,8.88
2022-09-28T04:50:57.223Z,8.88
2022-09-28T04:57:17.210Z,8.87
2022-09-28T05:03:40.169Z,8.85
2022-09-28T05:10:00.235Z,8.8
2022-09-28T05:16:23.218Z,8.79
2022-09-28T05:22:43.188Z,8.82
2022-09-28T05:29:06.194Z,8.82
2022-09-28T05:35:26.170Z,8.85
2022-09-28T05:41:49.239Z,8.89
2022-09-28T05:48:09.203Z,8.9
2022-09-28T05:54:32.180Z,8.94
2022-09-28T06:00:52.240Z,9
2022-09-28T06:07:15.220Z,9.05
2022-09-28T06:13:35.254Z,9.07
2022-09-28T06:19:58.169Z,9.12
2022-09-28T06:26:18.216Z,9.14
2022-09-28T06:32:41.192Z,9.18
2022-09-28T06:39:01.201Z,9.21
2022-09-28T06:45:24.287Z,9.23
2022-09-28T06:51:44.228Z,9.17
2022-09-28T06:58:07.190Z,9.2
2022-09-28T07:04:27.227Z,9.25
2022-09-28T07:10:50.169Z,9.37
2022-09-28T07:17:13.938Z,9.41
2022-09-28T07:23:36.584Z,9.42
2022-09-28T07:29:53.173Z,9.46
2022-09-28T07:36:16.239Z,9.52
2022-09-28T07:42:36.218Z,9.58
2022-09-28T07:48:59.273Z,9.62
2022-09-28T07:55:19.191Z,9.72
2022-09-28T08:01:42.299Z,9.76
2022-09-28T08:08:02.172Z,9.8
2022-09-28T08:14:25.198Z,9.87
2022-09-28T08:20:48.175Z,9.93
2022-09-28T08:27:08.177Z,10.06
2022-09-28T08:42:39.105Z,10.25
2022-09-28T08:49:20.952Z,10.41
2022-09-28T08:55:22.222Z,10.57
2022-09-28T09:01:42.247Z,10.67
2022-09-28T09:08:05.203Z,10.66
2022-09-28T09:14:25.196Z,10.75
2022-09-28T09:20:48.182Z,10.89
2022-09-28T09:27:08.195Z,10.99
2022-09-28T09:33:31.188Z,11.09
2022-09-28T09:39:51.227Z,11.15
2022-09-28T09:46:14.225Z,11.28
2022-09-28T09:58:57.235Z,11.61
2022-09-28T10:05:17.162Z,11.81
2022-09-28T10:11:40.211Z,12.04
2022-09-28T10:18:00.226Z,12.13
2022-09-28T10:24:23.191Z,12.33
2022-09-28T10:30:43.273Z,12.45
2022-09-28T10:37:06.230Z,12.55
2022-09-28T10:43:26.195Z,12.71
2022-09-28T10:49:49.201Z,12.73
2022-09-28T10:56:09.221Z,12.59
2022-09-28T11:02:35.601Z,12.48
2022-09-28T11:08:52.396Z,12.5
2022-09-28T11:15:15.560Z,12.64
2022-09-28T11:21:35.152Z,13.11
2022-09-28T11:27:58.145Z,13.78
2022-09-28T11:34:18.349Z,14.4
2022-09-28T11:40:41.258Z,14.97
2022-09-28T11:47:01.210Z,15.09
2022-09-28T11:53:24.173Z,14.9
2022-09-28T11:59:44.185Z,14.74
2022-09-28T12:06:07.850Z,14.25
2022-09-28T12:12:28.188Z,13.86
2022-09-28T12:18:51.282Z,13.61
2022-09-28T12:25:11.153Z,13.53
2022-09-28T12:31:34.352Z,13.7
2022-09-28T12:37:54.664Z,13.83
2022-09-28T12:44:17.153Z,13.95
2022-09-28T12:50:38.964Z,13.94
2022-09-28T12:57:00.209Z,13.97
2022-09-28T13:03:20.193Z,13.98
2022-09-28T13:09:43.189Z,14.07
2022-09-28T13:16:03.202Z,13.92
2022-09-28T13:22:26.198Z,13.82
2022-09-28T13:28:46.217Z,13.64
2022-09-28T13:35:09.208Z,13.63
2022-09-28T13:41:29.185Z,13.61
2022-09-28T13:58:26.107Z,13.68
2022-09-28T14:04:46.161Z,13.74
2022-09-28T14:11:09.212Z,13.88
2022-09-28T14:17:29.214Z,14.04
2022-09-28T14:23:54.262Z,14.1
2022-09-28T14:30:12.396Z,14.15
2022-09-28T14:36:35.325Z,14.19
2022-09-28T14:42:55.206Z,14.27
2022-09-28T14:49:18.371Z,14.43
2022-09-28T14:55:38.414Z,14.56
2022-09-28T15:02:01.190Z,14.47
2022-09-28T15:08:21.167Z,14.42
2022-09-28T15:14:44.238Z,14.23
2022-09-28T15:21:04.154Z,14.02
2022-09-28T15:27:27.172Z,13.98
2022-09-28T15:33:47.173Z,14.01
2022-09-28T15:40:10.180Z,13.98
2022-09-28T15:46:30.207Z,13.93
2022-09-28T15:52:53.214Z,13.86
2022-09-28T15:59:13.201Z,13.82
2022-09-28T16:05:36.174Z,13.72
2022-09-28T16:11:56.288Z,13.63
2022-09-28T16:18:19.170Z,13.49
2022-09-28T16:24:39.364Z,13.09
2022-09-28T16:31:02.359Z,12.3
2022-09-28T16:37:22.228Z,11.62
2022-09-28T16:43:45.147Z,11.36
2022-09-28T16:50:05.282Z,11.22
2022-09-28T16:56:28.214Z,11.18
2022-09-28T17:02:48.339Z,11.12
2022-09-28T17:09:11.201Z,11.07
2022-09-28T17:15:31.206Z,11.04
2022-09-28T17:21:54.222Z,11.04
2022-09-28T17:28:14.158Z,11.09
2022-09-28T17:34:37.165Z,11.13
2022-09-28T17:40:57.178Z,11.19
2022-09-28T17:47:20.211Z,11.28
2022-09-28T17:53:40.140Z,11.32
2022-09-28T18:00:03.169Z,11.28
2022-09-28T18:06:23.180Z,11.24
2022-09-28T18:12:46.140Z,11.21
2022-09-28T18:19:06.191Z,11.16
2022-09-28T18:25:29.176Z,11.12
2022-09-28T18:31:49.158Z,11.05
2022-09-28T18:38:27.161Z,11.03
2022-09-28T18:44:47.195Z,11.01
2022-09-28T19:08:28.165Z,10.95
2022-09-28T19:14:51.150Z,10.9
2022-09-28T19:21:11.156Z,10.82
2022-09-28T19:27:34.193Z,10.75
2022-09-28T19:33:54.155Z,10.63
2022-09-28T19:40:17.229Z,10.52
2022-09-28T19:46:37.261Z,10.45
2022-09-28T19:53:00.453Z,10.37
2022-09-28T19:59:20.155Z,10.28
2022-09-28T20:05:43.187Z,10.24
2022-09-28T20:12:03.171Z,10.22
2022-09-28T20:18:26.159Z,10.2
2022-09-28T20:24:46.305Z,10.16
2022-09-28T20:31:09.254Z,10.15
2022-09-28T20:37:29.161Z,10.11
2022-09-28T20:43:52.213Z,10.01
2022-09-28T20:50:12.156Z,9.93
2022-09-28T20:56:35.183Z,9.91
2022-09-28T21:02:55.273Z,9.88
2022-09-28T21:09:18.182Z,9.83
2022-09-28T21:15:38.240Z,9.8
2022-09-28T21:22:01.170Z,9.85
2022-09-28T21:28:21.165Z,9.91
2022-09-28T21:34:44.152Z,9.97
2022-09-28T21:41:04.269Z,9.96
2022-09-28T21:47:27.221Z,9.91
2022-09-28T21:53:47.154Z,9.91
2022-09-28T22:00:10.192Z,9.93
2022-09-28T22:23:07.164Z,9.82
2022-09-28T22:29:27.165Z,9.8
2022-09-28T22:35:50.142Z,9.75
2022-09-28T22:42:10.256Z,9.68
2022-09-28T22:48:33.134Z,9.55
2022-09-28T22:54:53.168Z,9.44
2022-09-28T23:01:16.211Z,9.37
2022-09-28T23:07:36.190Z,9.26
2022-09-28T23:13:59.165Z,9.14
2022-09-28T23:20:19.190Z,9.01
2022-09-28T23:26:42.209Z,8.93
2022-09-28T23:33:02.168Z,8.87
2022-09-28T23:39:25.229Z,8.82
2022-09-28T23:45:45.207Z,8.79
2022-09-28T23:52:08.224Z,8.77
2022-09-28T23:58:28.180Z,8.67
